createdAt,value
2022-12-03T00:02:13.475Z,91991.53
2022-12-03T00:04:40.683Z,91987.00
2022-12-03T00:07:07.359Z,92000.22
2022-12-03T00:09:34.010Z,92004.91
2022-12-03T00:12:00.720Z,92004.31
2022-12-03T00:14:27.566Z,92007.56
2022-12-03T00:16:54.198Z,92007.69
2022-12-03T00:19:21.184Z,92012.72
2022-12-03T00:21:47.927Z,92014.06
2022-12-03T00:24:14.620Z,92015.16
2022-12-03T00:26:41.364Z,92005.66
2022-12-03T00:29:08.040Z,92017.31
2022-12-03T00:31:34.726Z,92012.28
2022-12-03T00:34:01.539Z,92008.09
2022-12-03T00:36:28.299Z,92022.72
2022-12-03T00:38:55.147Z,92015.22
2022-12-03T00:41:21.920Z,92014.59
2022-12-03T00:43:48.553Z,92014.19
2022-12-03T00:46:20.930Z,92015.72
2022-12-03T00:48:48.135Z,92014.19
2022-12-03T00:51:14.829Z,92017.63
2022-12-03T00:53:41.610Z,92018.13
2022-12-03T00:56:08.623Z,92013.69
2022-12-03T00:58:35.303Z,92022.22
2022-12-03T01:01:02.676Z,92017.13
2022-12-03T01:03:29.609Z,92009.25
2022-12-03T01:05:56.256Z,92009.75
2022-12-03T01:08:23.052Z,92012.91
2022-12-03T01:10:49.704Z,92021.56
2022-12-03T01:13:16.354Z,92018.06
2022-12-03T01:15:43.331Z,92016.09
2022-12-03T01:18:10.038Z,92021.44
2022-12-03T01:20:36.826Z,92031.59
2022-12-03T01:23:03.536Z,92031.94
2022-12-03T01:25:30.758Z,92027.44
2022-12-03T01:27:57.381Z,92026.78
2022-12-03T01:30:24.039Z,92029.19
2022-12-03T01:32:50.735Z,92036.81
2022-12-03T01:35:17.438Z,92030.72
2022-12-03T01:37:44.189Z,92034.19
2022-12-03T01:40:14.694Z,92004.78
2022-12-03T01:42:42.378Z,92035.75
2022-12-03T01:45:22.190Z,92026.53
2022-12-03T01:47:49.593Z,92023.47
2022-12-03T01:50:32.377Z,92036.72
2022-12-03T01:53:01.979Z,92034.66
2022-12-03T01:55:29.342Z,92023.47
2022-12-03T01:57:59.227Z,92036.44
2022-12-03T02:00:27.420Z,92032.25
2022-12-03T02:02:57.327Z,92038.31
2022-12-03T02:05:27.335Z,92029.44
2022-12-03T02:07:54.654Z,92029.56
2022-12-03T02:10:34.338Z,92031.16
2022-12-03T02:13:07.940Z,92025.13
2022-12-03T02:15:36.053Z,92006.81
2022-12-03T02:18:02.912Z,92028.16
2022-12-03T02:20:33.168Z,92025.75
2022-12-03T02:23:22.754Z,92030.34
2022-12-03T02:25:49.525Z,92026.72
2022-12-03T02:28:16.166Z,92024.13
2022-12-03T02:30:42.844Z,92017.94
2022-12-03T02:33:09.527Z,92018.06
2022-12-03T02:35:37.522Z,92021.91
2022-12-03T02:38:24.251Z,92022.25
2022-12-03T02:40:55.200Z,92018.13
2022-12-03T02:43:23.006Z,92006.34
2022-12-03T02:45:53.584Z,92010.25
2022-12-03T02:48:34.621Z,92011.28
2022-12-03T02:51:05.446Z,92023.84
2022-12-03T02:53:36.975Z,92006.81
2022-12-03T02:56:05.045Z,92014.59
2022-12-03T02:58:33.549Z,92025.75
2022-12-03T03:01:03.074Z,92025.63
2022-12-03T03:03:32.433Z,92032.63
2022-12-03T03:06:02.734Z,92031.34
2022-12-03T03:08:30.935Z,92036.09
2022-12-03T03:11:00.359Z,92038.72
2022-12-03T03:13:36.603Z,92033.75
2022-12-03T03:16:05.256Z,92032.50
2022-12-03T03:18:33.278Z,92035.50
2022-12-03T03:21:00.338Z,92031.09
2022-12-03T03:23:27.742Z,92029.97
2022-12-03T03:25:59.937Z,92025.31
2022-12-03T03:28:28.421Z,92029.66
2022-12-03T03:30:55.762Z,92028.53
2022-12-03T03:33:22.448Z,92038.81
2022-12-03T03:35:49.370Z,92042.25
2022-12-03T03:38:19.068Z,92041.38
2022-12-03T03:40:48.095Z,92045.75
2022-12-03T03:43:15.589Z,92039.22
2022-12-03T03:45:43.424Z,92048.53
2022-12-03T03:48:11.256Z,92038.44
2022-12-03T03:50:38.077Z,92044.81
2022-12-03T03:53:05.775Z,92050.16
2022-12-03T03:55:33.120Z,92060.56
2022-12-03T03:58:00.156Z,92046.47
2022-12-03T04:00:27.014Z,92062.59
2022-12-03T04:02:54.003Z,92056.81
2022-12-03T04:05:23.167Z,92062.09
2022-12-03T04:07:50.371Z,92064.53
2022-12-03T04:10:43.343Z,92063.19
2022-12-03T04:13:10.031Z,92060.69
2022-12-03T04:15:36.755Z,92064.16
2022-12-03T04:18:22.003Z,92059.28
2022-12-03T04:20:48.792Z,92063.50
2022-12-03T04:23:15.436Z,92063.88
2022-12-03T04:26:00.701Z,92059.94
2022-12-03T04:28:45.718Z,92063.84
2022-12-03T04:31:31.059Z,92071.50
2022-12-03T04:34:16.206Z,92073.59
2022-12-03T04:36:42.897Z,92067.34
2022-12-03T04:39:09.515Z,92075.09
2022-12-03T04:41:36.199Z,92081.03
2022-12-03T04:44:32.387Z,92071.19
2022-12-03T04:47:11.009Z,92072.91
2022-12-03T04:49:41.051Z,92075.88
2022-12-03T04:52:08.629Z,92063.25
2022-12-03T04:54:36.158Z,92057.00
2022-12-03T04:57:03.622Z,92062.16
2022-12-03T04:59:30.821Z,92059.69
2022-12-03T05:01:57.516Z,92059.94
2022-12-03T05:04:24.257Z,92062.72
2022-12-03T05:06:51.048Z,92076.19
2022-12-03T05:09:17.933Z,92068.56
2022-12-03T05:11:44.767Z,92075.69
2022-12-03T05:14:12.156Z,92074.09
2022-12-03T05:16:39.102Z,92083.97
2022-12-03T05:19:07.453Z,92082.03
2022-12-03T05:21:34.425Z,92090.13
2022-12-03T05:24:01.230Z,92089.03
2022-12-03T05:26:27.996Z,92090.06
2022-12-03T05:28:54.720Z,92087.78
2022-12-03T05:31:26.483Z,92091.78
2022-12-03T05:33:54.780Z,92086.34
2022-12-03T05:36:21.589Z,92102.81
2022-12-03T05:38:48.494Z,92105.44
2022-12-03T05:41:34.070Z,92097.53
2022-12-03T05:44:00.694Z,92105.03
2022-12-03T05:46:27.529Z,92107.44
2022-12-03T05:48:54.296Z,92106.53
2022-12-03T05:51:20.975Z,92098.69
2022-12-03T05:53:47.610Z,92103.41
2022-12-03T05:56:14.241Z,92099.06
2022-12-03T05:58:40.946Z,92109.38
2022-12-03T06:01:07.622Z,92108.63
2022-12-03T06:03:34.450Z,92109.69
2022-12-03T06:06:01.163Z,92116.97
2022-12-03T06:08:27.897Z,92111.84
2022-12-03T06:10:54.611Z,92113.38
2022-12-03T06:13:21.223Z,92116.06
2022-12-03T06:15:47.989Z,92118.50
2022-12-03T06:18:14.739Z,92119.91
2022-12-03T06:20:41.473Z,92115.34
2022-12-03T06:23:08.291Z,92114.97
2022-12-03T06:25:34.930Z,92126.41
2022-12-03T06:28:01.667Z,92120.25
2022-12-03T06:30:28.320Z,92126.03
2022-12-03T06:32:55.117Z,92126.47
2022-12-03T06:35:21.843Z,92128.44
2022-12-03T06:37:48.525Z,92123.47
2022-12-03T06:40:16.872Z,92137.69
2022-12-03T06:42:43.629Z,92133.63
2022-12-03T06:45:11.122Z,92139.75
2022-12-03T06:47:37.856Z,92136.84
2022-12-03T06:50:06.321Z,92140.28
2022-12-03T06:52:33.019Z,92143.81
2022-12-03T06:54:59.748Z,92147.91
2022-12-03T06:57:26.654Z,92144.00
2022-12-03T06:59:53.520Z,92127.53
2022-12-03T07:02:20.387Z,92162.47
2022-12-03T07:04:47.091Z,92157.94
2022-12-03T07:07:14.435Z,92162.16
2022-12-03T07:09:41.165Z,92162.72
2022-12-03T07:12:07.847Z,92165.03
2022-12-03T07:14:34.449Z,92167.69
2022-12-03T07:17:01.310Z,92169.44
2022-12-03T07:19:32.507Z,92170.97
2022-12-03T07:22:00.151Z,92163.09
2022-12-03T07:24:27.344Z,92162.75
2022-12-03T07:26:54.016Z,92163.00
2022-12-03T07:29:20.702Z,92162.28
2022-12-03T07:31:47.422Z,92164.44
2022-12-03T07:34:14.215Z,92176.13
2022-12-03T07:36:40.985Z,92168.25
2022-12-03T07:39:07.677Z,92179.44
2022-12-03T07:41:34.557Z,92167.81
2022-12-03T07:44:01.211Z,92181.09
2022-12-03T07:46:43.870Z,92180.38
2022-12-03T07:49:12.175Z,92175.31
2022-12-03T07:51:39.211Z,92183.31
2022-12-03T07:54:05.985Z,92179.75
2022-12-03T07:56:32.670Z,92184.19
2022-12-03T07:58:59.382Z,92186.19
2022-12-03T08:01:26.139Z,92178.22
2022-12-03T08:03:52.807Z,92178.78
2022-12-03T08:06:19.458Z,92174.13
2022-12-03T08:08:46.071Z,92173.56
2022-12-03T08:11:15.077Z,92163.47
2022-12-03T08:13:41.776Z,92174.69
2022-12-03T08:16:26.749Z,92178.28
2022-12-03T08:18:57.615Z,92185.78
2022-12-03T08:21:24.272Z,92189.88
2022-12-03T08:23:51.000Z,92186.63
2022-12-03T08:26:24.997Z,92178.81
2022-12-03T08:28:55.124Z,92170.13
2022-12-03T08:31:32.306Z,92168.91
2022-12-03T08:34:15.728Z,92172.50
2022-12-03T08:36:42.431Z,92158.78
2022-12-03T08:39:23.094Z,92169.44
2022-12-03T08:42:14.191Z,92168.78
2022-12-03T08:44:43.614Z,92168.34
2022-12-03T08:47:10.272Z,92172.06
2022-12-03T08:49:37.855Z,92170.41
2022-12-03T08:52:18.695Z,92170.34
2022-12-03T08:54:53.695Z,92169.34
2022-12-03T08:57:30.458Z,92159.00
2022-12-03T09:00:16.243Z,92157.06
2022-12-03T09:02:47.975Z,92153.66
2022-12-03T09:05:23.579Z,92148.84
2022-12-03T09:07:50.372Z,92154.63
2022-12-03T09:10:17.262Z,92149.34
2022-12-03T09:12:43.862Z,92147.16
2022-12-03T09:15:11.112Z,92151.09
2022-12-03T09:17:37.775Z,92151.25
2022-12-03T09:20:05.881Z,92118.94
2022-12-03T09:22:33.083Z,92150.38
2022-12-03T09:25:00.282Z,92143.31
2022-12-03T09:27:27.020Z,92141.44
2022-12-03T09:29:53.688Z,92128.19
2022-12-03T09:32:20.738Z,92133.25
2022-12-03T09:34:47.516Z,92128.00
2022-12-03T09:37:14.182Z,92134.81
2022-12-03T09:39:40.919Z,92135.19
2022-12-03T09:42:08.273Z,92134.94
2022-12-03T09:44:36.155Z,92139.97
2022-12-03T09:47:04.778Z,92129.69
2022-12-03T09:49:33.441Z,92120.66
2022-12-03T09:52:03.111Z,92123.13
2022-12-03T09:54:32.375Z,92124.78
2022-12-03T09:57:04.343Z,92137.56
2022-12-03T09:59:33.385Z,92132.06
2022-12-03T10:02:01.206Z,92129.25
2022-12-03T10:04:29.744Z,92113.34
2022-12-03T10:06:58.459Z,92116.63
2022-12-03T10:09:28.250Z,92121.69
2022-12-03T10:11:57.372Z,92116.81
2022-12-03T10:14:24.642Z,92118.91
2022-12-03T10:16:51.652Z,92118.94
2022-12-03T10:19:27.856Z,92105.41
2022-12-03T10:21:55.812Z,92108.88
2022-12-03T10:24:29.053Z,92114.38
2022-12-03T10:27:01.472Z,92114.75
2022-12-03T10:29:34.681Z,92114.66
2022-12-03T10:32:03.166Z,92110.69
2022-12-03T10:34:37.151Z,92111.66
2022-12-03T10:37:09.690Z,92101.19
2022-12-03T10:40:00.382Z,92102.66
2022-12-03T10:42:29.934Z,92107.06
2022-12-03T10:45:13.395Z,92110.50
2022-12-03T10:47:40.331Z,92115.69
2022-12-03T10:50:18.594Z,92108.22
2022-12-03T10:52:46.677Z,92100.44
2022-12-03T10:55:14.930Z,92104.84
2022-12-03T10:57:45.581Z,92102.38
2022-12-03T11:00:18.593Z,92101.75
2022-12-03T11:02:49.397Z,92101.34
2022-12-03T11:05:26.849Z,92101.72
2022-12-03T11:07:54.118Z,92101.44
2022-12-03T11:10:21.199Z,92094.44
2022-12-03T11:13:25.451Z,92097.09
2022-12-03T11:15:53.255Z,92089.22
2022-12-03T11:18:38.477Z,92090.81
2022-12-03T11:21:13.512Z,92083.09
2022-12-03T11:23:46.672Z,92090.88
2022-12-03T11:26:18.795Z,92077.38
2022-12-03T11:28:46.396Z,92078.31
2022-12-03T11:31:48.226Z,92075.75
2022-12-03T11:34:21.381Z,92080.50
2022-12-03T11:37:09.671Z,92090.28
2022-12-03T11:39:47.936Z,92085.56
2022-12-03T11:42:26.493Z,92069.59
2022-12-03T11:45:11.107Z,92087.59
2022-12-03T11:47:41.309Z,92092.09
2022-12-03T11:50:21.882Z,92085.84
2022-12-03T11:52:59.540Z,92084.13
2022-12-03T11:55:31.344Z,92090.69
2022-12-03T11:58:04.202Z,92086.06
2022-12-03T12:00:30.980Z,92075.94
2022-12-03T12:02:58.492Z,92080.66
2022-12-03T12:05:28.860Z,92074.41
2022-12-03T12:07:56.817Z,92078.13
2022-12-03T12:10:44.393Z,92081.16
2022-12-03T12:13:28.817Z,92061.28
2022-12-03T12:15:55.598Z,92062.88
2022-12-03T12:18:55.777Z,92068.72
2022-12-03T12:21:48.146Z,92072.13
2022-12-03T12:24:33.353Z,92076.59
2022-12-03T12:27:07.461Z,92072.78
2022-12-03T12:29:35.521Z,92063.94
2022-12-03T12:32:17.261Z,92069.84
2022-12-03T12:34:47.171Z,92070.38
2022-12-03T12:37:21.141Z,92074.09
2022-12-03T12:39:48.559Z,92067.34
2022-12-03T12:42:35.516Z,92067.84
2022-12-03T12:45:08.100Z,92071.19
2022-12-03T12:47:35.662Z,92069.09
2022-12-03T12:50:09.396Z,92068.13
2022-12-03T12:52:36.839Z,92068.63
2022-12-03T12:55:09.547Z,92065.09
2022-12-03T12:57:36.242Z,92066.13
2022-12-03T13:00:05.120Z,92066.41
2022-12-03T13:02:31.869Z,92067.25
2022-12-03T13:05:01.780Z,92070.84
2022-12-03T13:07:28.489Z,92061.59
2022-12-03T13:09:57.101Z,92067.06
2022-12-03T13:12:26.737Z,92066.34
2022-12-03T13:14:58.850Z,92067.22
2022-12-03T13:17:26.106Z,92062.53
2022-12-03T13:20:07.772Z,92063.19
2022-12-03T13:22:34.836Z,92055.59
2022-12-03T13:25:44.002Z,92057.19
2022-12-03T13:28:08.060Z,92064.91
2022-12-03T13:30:34.966Z,92069.13
2022-12-03T13:33:13.619Z,92064.09
2022-12-03T13:35:42.817Z,92065.19
2022-12-03T13:38:15.520Z,92074.69
2022-12-03T13:40:42.761Z,92069.81
2022-12-03T13:43:15.665Z,92057.47
2022-12-03T13:45:49.358Z,92072.00
2022-12-03T13:48:24.971Z,92062.97
2022-12-03T13:50:53.059Z,92066.16
2022-12-03T13:53:37.171Z,92064.25
2022-12-03T13:56:15.880Z,92060.47
2022-12-03T13:58:42.527Z,92060.09
2022-12-03T14:01:09.809Z,92064.53
2022-12-03T14:03:36.530Z,92057.47
2022-12-03T14:06:03.312Z,92055.44
2022-12-03T14:08:30.063Z,92057.72
2022-12-03T14:11:00.344Z,92061.00
2022-12-03T14:13:27.391Z,92053.72
2022-12-03T14:15:54.070Z,92059.88
2022-12-03T14:18:21.239Z,92055.69
2022-12-03T14:20:48.393Z,92063.19
2022-12-03T14:23:15.702Z,92063.06
2022-12-03T14:25:44.217Z,92063.31
2022-12-03T14:28:11.460Z,92059.25
2022-12-03T14:30:38.095Z,92070.50
2022-12-03T14:33:05.745Z,92061.16
2022-12-03T14:35:32.607Z,92054.34
2022-12-03T14:37:59.288Z,92068.53
2022-12-03T14:40:26.375Z,92076.00
2022-12-03T14:42:53.090Z,92072.44
2022-12-03T14:45:20.945Z,92074.09
2022-12-03T14:47:47.610Z,92067.88
2022-12-03T14:50:14.942Z,92078.88
2022-12-03T14:52:41.720Z,92079.97
2022-12-03T14:55:08.799Z,92077.34
2022-12-03T14:57:35.498Z,92073.09
2022-12-03T15:00:02.253Z,92077.75
2022-12-03T15:02:30.486Z,92082.38
2022-12-03T15:04:57.349Z,92090.41
2022-12-03T15:07:24.033Z,92063.44
2022-12-03T15:09:50.752Z,92085.81
2022-12-03T15:12:17.429Z,92082.78
2022-12-03T15:14:44.148Z,92076.72
2022-12-03T15:17:10.925Z,92074.75
2022-12-03T15:19:37.643Z,92080.53
2022-12-03T15:22:04.376Z,92076.59
2022-12-03T15:24:31.272Z,92084.38
2022-12-03T15:26:58.016Z,92086.75
2022-12-03T15:29:30.457Z,92096.00
2022-12-03T15:31:59.450Z,92086.41
2022-12-03T15:34:26.121Z,92098.94
2022-12-03T15:36:53.169Z,92089.78
2022-12-03T15:39:20.031Z,92096.09
2022-12-03T15:41:48.352Z,92095.00
2022-12-03T15:44:15.094Z,92098.06
2022-12-03T15:46:41.852Z,92095.13
2022-12-03T15:49:08.763Z,92106.09
2022-12-03T15:51:35.409Z,92115.84
2022-12-03T15:54:02.071Z,92110.81
2022-12-03T15:56:28.758Z,92114.13
2022-12-03T15:58:55.423Z,92113.16
2022-12-03T16:01:22.173Z,92110.34
2022-12-03T16:03:48.863Z,92116.44
2022-12-03T16:06:15.748Z,92113.84
2022-12-03T16:08:42.383Z,92120.28
2022-12-03T16:11:09.170Z,92121.41
2022-12-03T16:13:35.921Z,92122.72
2022-12-03T16:16:02.630Z,92129.19
2022-12-03T16:18:29.420Z,92131.75
2022-12-03T16:20:56.244Z,92117.69
2022-12-03T16:23:22.936Z,92128.84
2022-12-03T16:25:49.628Z,92126.41
2022-12-03T16:28:16.364Z,92130.00
2022-12-03T16:30:43.119Z,92133.91
2022-12-03T16:33:09.945Z,92138.63
2022-12-03T16:35:36.641Z,92145.69
2022-12-03T16:38:03.315Z,92147.59
2022-12-03T16:40:30.067Z,92148.09
2022-12-03T16:42:57.276Z,92152.69
2022-12-03T16:45:29.871Z,92150.00
2022-12-03T16:47:56.561Z,92150.13
2022-12-03T16:50:29.355Z,92151.97
2022-12-03T16:52:58.235Z,92150.44
2022-12-03T16:55:25.584Z,92155.53
2022-12-03T16:57:52.294Z,92158.19
2022-12-03T17:00:22.094Z,92157.03
2022-12-03T17:02:49.415Z,92163.41
2022-12-03T17:05:16.374Z,92168.16
2022-12-03T17:07:43.144Z,92171.03
2022-12-03T17:10:11.024Z,92172.00
2022-12-03T17:13:07.760Z,92168.97
2022-12-03T17:15:24.508Z,92176.44
2022-12-03T17:17:51.271Z,92173.38
2022-12-03T17:20:18.616Z,92170.38
2022-12-03T17:22:45.308Z,92181.81
2022-12-03T17:25:12.203Z,92188.31
2022-12-03T17:27:44.784Z,92181.44
2022-12-03T17:30:12.846Z,92187.09
2022-12-03T17:32:39.586Z,92182.97
2022-12-03T17:35:10.169Z,92191.06
2022-12-03T17:37:37.160Z,92194.91
2022-12-03T17:40:08.947Z,92190.34
2022-12-03T17:42:35.607Z,92194.78
2022-12-03T17:45:02.371Z,92200.13
2022-12-03T17:47:29.105Z,92207.34
2022-12-03T17:49:56.126Z,92200.84
2022-12-03T17:52:23.328Z,92190.50
2022-12-03T17:55:09.985Z,92198.28
2022-12-03T17:57:36.667Z,92210.84
2022-12-03T18:00:03.905Z,92210.09
2022-12-03T18:02:30.578Z,92204.50
2022-12-03T18:04:57.396Z,92212.69
2022-12-03T18:07:24.103Z,92210.63
2022-12-03T18:09:50.794Z,92217.88
2022-12-03T18:12:17.561Z,92211.50
2022-12-03T18:14:44.251Z,92223.28
2022-12-03T18:17:11.351Z,92222.69
2022-12-03T18:19:38.048Z,92220.72
2022-12-03T18:22:05.254Z,92229.91
2022-12-03T18:24:32.814Z,92223.47
2022-12-03T18:26:59.493Z,92221.75
2022-12-03T18:29:26.328Z,92217.50
2022-12-03T18:31:53.039Z,92221.31
2022-12-03T18:34:19.908Z,92217.94
2022-12-03T18:36:46.663Z,92215.00
2022-12-03T18:39:29.217Z,92201.44
2022-12-03T18:41:56.035Z,92219.25
2022-12-03T18:44:22.780Z,92212.25
2022-12-03T18:46:54.203Z,92201.72
2022-12-03T18:49:21.892Z,92215.78
2022-12-03T18:51:49.372Z,92220.13
2022-12-03T18:54:17.921Z,92219.09
2022-12-03T18:56:44.573Z,92212.34
2022-12-03T18:59:12.318Z,92211.69
2022-12-03T19:01:39.077Z,92212.66
2022-12-03T19:04:05.820Z,92217.22
2022-12-03T19:06:32.474Z,92204.88
2022-12-03T19:08:59.279Z,92214.19
2022-12-03T19:11:25.974Z,92213.00
2022-12-03T19:13:52.864Z,92216.94
2022-12-03T19:16:19.838Z,92219.50
2022-12-03T19:18:46.564Z,92220.47
2022-12-03T19:21:16.082Z,92219.53
2022-12-03T19:24:04.232Z,92234.28
2022-12-03T19:26:30.394Z,92233.03
2022-12-03T19:28:57.464Z,92228.78
2022-12-03T19:31:24.227Z,92229.81
2022-12-03T19:33:51.868Z,92234.16
2022-12-03T19:36:30.363Z,92233.97
2022-12-03T19:38:59.676Z,92236.22
2022-12-03T19:41:30.415Z,92235.03
2022-12-03T19:43:58.138Z,92238.88
2022-12-03T19:46:28.740Z,92237.03
2022-12-03T19:48:55.460Z,92240.97
2022-12-03T19:51:37.217Z,92242.94
2022-12-03T19:54:06.330Z,92231.63
2022-12-03T19:56:33.627Z,92219.94
2022-12-03T19:59:00.419Z,92229.56
2022-12-03T20:01:30.002Z,92234.78
2022-12-03T20:03:58.683Z,92229.41
2022-12-03T20:06:28.371Z,92233.66
2022-12-03T20:09:00.456Z,92230.34
2022-12-03T20:11:30.060Z,92240.66
2022-12-03T20:13:59.977Z,92247.56
2022-12-03T20:16:28.102Z,92241.56
2022-12-03T20:19:01.859Z,92253.38
2022-12-03T20:21:33.713Z,92251.41
2022-12-03T20:24:00.966Z,92249.56
2022-12-03T20:26:28.348Z,92252.94
2022-12-03T20:28:56.714Z,92250.91
2022-12-03T20:31:26.206Z,92253.66
2022-12-03T20:33:56.126Z,92259.78
2022-12-03T20:36:24.012Z,92253.97
2022-12-03T20:38:59.248Z,92257.50
2022-12-03T20:41:26.265Z,92232.13
2022-12-03T20:43:54.430Z,92259.16
2022-12-03T20:46:27.305Z,92258.72
2022-12-03T20:48:54.374Z,92264.84
2022-12-03T20:51:24.214Z,92256.91
2022-12-03T20:53:51.948Z,92254.94
2022-12-03T20:56:24.690Z,92260.47
2022-12-03T20:58:51.339Z,92260.41
2022-12-03T21:01:21.432Z,92257.66
2022-12-03T21:03:48.811Z,92266.03
2022-12-03T21:06:16.453Z,92261.28
2022-12-03T21:08:43.866Z,92265.91
2022-12-03T21:11:16.452Z,92273.09
2022-12-03T21:13:44.185Z,92271.88
2022-12-03T21:16:15.928Z,92277.56
2022-12-03T21:18:43.404Z,92272.63
2022-12-03T21:21:14.992Z,92270.38
2022-12-03T21:23:45.470Z,92271.75
2022-12-03T21:26:14.560Z,92272.63
2022-12-03T21:28:43.431Z,92274.81
2022-12-03T21:31:14.253Z,92271.88
2022-12-03T21:33:41.563Z,92268.41
2022-12-03T21:36:09.182Z,92265.97
2022-12-03T21:38:36.609Z,92264.56
2022-12-03T21:41:04.017Z,92270.38
2022-12-03T21:43:32.359Z,92263.81
2022-12-03T21:45:59.101Z,92272.72
2022-12-03T21:48:26.239Z,92263.97
2022-12-03T21:51:08.296Z,92263.38
2022-12-03T21:53:41.946Z,92268.41
2022-12-03T21:56:16.222Z,92271.78
2022-12-03T21:58:43.722Z,92263.22
2022-12-03T22:01:19.976Z,92266.44
2022-12-03T22:03:47.128Z,92265.38
2022-12-03T22:06:14.334Z,92269.06
2022-12-03T22:08:41.783Z,92273.31
2022-12-03T22:11:10.738Z,92267.34
2022-12-03T22:13:38.978Z,92269.66
2022-12-03T22:16:12.072Z,92265.53
2022-12-03T22:18:38.973Z,92264.91
2022-12-03T22:21:08.152Z,92268.59
2022-12-03T22:23:35.518Z,92260.00
2022-12-03T22:26:05.406Z,92261.22
2022-12-03T22:28:33.191Z,92255.56
2022-12-03T22:31:00.284Z,92254.06
2022-12-03T22:33:27.075Z,92257.72
2022-12-03T22:35:56.751Z,92256.53
2022-12-03T22:38:23.916Z,92260.31
2022-12-03T22:40:50.624Z,92256.38
2022-12-03T22:43:18.511Z,92248.69
2022-12-03T22:45:45.235Z,92251.59
2022-12-03T22:48:12.002Z,92249.91
2022-12-03T22:50:44.718Z,92255.09
2022-12-03T22:53:12.693Z,92245.91
2022-12-03T22:55:40.023Z,92244.38
2022-12-03T22:58:07.967Z,92242.09
2022-12-03T23:00:37.609Z,92235.94
2022-12-03T23:03:05.525Z,92236.69
2022-12-03T23:05:38.689Z,92234.13
2022-12-03T23:08:07.858Z,92229.81
2022-12-03T23:10:39.386Z,92229.41
2022-12-03T23:13:06.459Z,92226.63
2022-12-03T23:15:33.132Z,92234.91
2022-12-03T23:18:00.124Z,92229.88
2022-12-03T23:20:27.686Z,92227.72
2022-12-03T23:22:55.272Z,92229.81
2022-12-03T23:25:22.497Z,92225.72
2022-12-03T23:27:49.193Z,92222.69
2022-12-03T23:30:16.879Z,92231.69
2022-12-03T23:32:44.481Z,92233.00
2022-12-03T23:35:12.720Z,92229.78
2022-12-03T23:37:42.540Z,92225.19
2022-12-03T23:40:09.698Z,92231.63
2022-12-03T23:42:36.351Z,92234.06
2022-12-03T23:45:03.321Z,92241.50
2022-12-03T23:47:30.256Z,92233.22
2022-12-03T23:49:57.242Z,92228.47
2022-12-03T23:52:24.530Z,92235.75
2022-12-03T23:54:51.276Z,92237.44
2022-12-03T23:57:18.469Z,92231.47
2022-12-03T23:59:45.215Z,92244.16
